Conroe, TX

2:18 AM CST on December 06, 2016 (GMT -0600)
Conroe High School Main Campus | | Change Station
Active Advisory: Flood Warning

Elev 256 ft 30.32 °N, 95.49 °W | Updated 2 minutes ago

Overcast
Overcast
50.8 °F
Feels Like 50.8 °F
N
5.0
Wind Variable Wind from West
Gusts 7.0 mph

Today
High -- | Low -- °F
--% Chance of Precip.
Yesterday
High -- | Low -- °F
Precip. -- in
Pressure 29.82 in
Visibility 10.0 miles
Clouds Mostly Cloudy 700 ft
Overcast 1300 ft
Dew Point 50 °F
Humidity 97%
Rainfall 0.00 in
Snow Depth Not available.
7:05 AM 5:21 PM
Waxing Crescent, 39% visible
METAR KCXO 060753Z AUTO 23005KT 10SM BKN007 OVC013 11/10 A2982 RMK AO2 SLP096 T01060100
Pressure 29.82 in
Visibility 10.0 miles
Clouds Mostly Cloudy 700 ft
Overcast 1300 ft
Dew Point 50 °F
Humidity 97%
Rainfall 0.00 in
Snow Depth Not available.
7:05 AM 5:21 PM
Waxing Crescent, 39% visible
METAR KCXO 060753Z AUTO 23005KT 10SM BKN007 OVC013 11/10 A2982 RMK AO2 SLP096 T01060100

10-Day Weather Forecast

Almanac

Astronomy

Dec. 06, 2016 Rise Set
Actual Time
Civil Twilight
Nautical Twilight
Astronomical Twilight
Moon
Length of Visible Light
Length of Day
Tomorrow will be .
, % of the Moon is Illuminated

Today's Extremes

State Highs State Lows

Community

WunderPhotos

Upload Photos

1,955,935 photos uploaded!

WunderBlog® & News

Nearby

Air Quality

  Air Quality AQ Index Pollutant
Not available.

Snow Depth

Station Depth Elevation

Earthquake Activity

City Distance Mag. Time & Date
Minimum magnitude displayed is 2.5.

Coastal Water Temperatures

Place Temperature

Stations

Nearby Weather Stations

Station Location Temp. Windchill Dew Point Humidity Wind Precip. Elev Updated Type
                   

Watches & Warnings

Flood Warning
Issued: 10:24 PM CST Dec. 5, 2016 – National Weather Service

The National Weather Service in Houston/Galveston has issued a

* Flood Warning for
the Lake Creek at The Woodlands.
* Until Tuesday morning... or until the warning is canceled.
* At 1030 PM Monday the stage was 138.0 feet.
* Minor flooding is occurring and minor flooding is forecast.
* Flood stage is 138.0 feet.
* Forecast... the river will continue rising to near 138.1 feet by after midnight
tomorrow. The river will fall below flood stage early tomorrow.


Lat... Lon 3026 9562 3028 9550 3025 9550 3023 9561